TimeCST,TemperatureF,Dew PointF,Humidity,Sea Level PressureIn,VisibilityMPH,Wind Direction,Wind SpeedMPH,Gust SpeedMPH,PrecipitationIn,Events,Conditions,WindDirDegrees,DateUTC
12:15 AM,31.1,24.3,76,30.00,10.0,SW,4.6,-,N/A,,Clear,230,2014-02-19 06:15:00
12:35 AM,32.0,24.8,75,29.99,10.0,SW,8.1,-,N/A,,Clear,230,2014-02-19 06:35:00
12:55 AM,32.0,24.8,75,29.99,10.0,SW,8.1,-,N/A,,Clear,230,2014-02-19 06:55:00
1:15 AM,32.0,25.3,76,29.99,10.0,WSW,8.1,-,N/A,,Clear,240,2014-02-19 07:15:00
1:35 AM,32.0,25.3,76,29.98,10.0,SW,6.9,-,N/A,,Clear,230,2014-02-19 07:35:00
1:55 AM,32.0,25.3,76,29.97,10.0,SW,6.9,-,N/A,,Clear,230,2014-02-19 07:55:00
2:15 AM,32.2,25.5,76,29.96,10.0,WSW,6.9,-,N/A,,Clear,240,2014-02-19 08:15:00
2:35 AM,32.0,25.7,78,29.96,10.0,SW,6.9,-,N/A,,Clear,230,2014-02-19 08:35:00
2:55 AM,32.0,25.7,78,29.95,10.0,SW,5.8,-,N/A,,Clear,230,2014-02-19 08:55:00
3:15 AM,33.1,25.5,74,29.93,10.0,SSW,8.1,-,N/A,,Clear,210,2014-02-19 09:15:00
3:35 AM,36.1,24.4,63,29.92,10.0,South,10.4,-,N/A,,Clear,190,2014-02-19 09:35:00
3:55 AM,36.1,24.1,62,29.92,10.0,South,12.7,-,N/A,,Clear,190,2014-02-19 09:55:00
4:15 AM,36.0,23.9,62,29.90,10.0,South,11.5,-,N/A,,Clear,180,2014-02-19 10:15:00
4:35 AM,36.0,23.5,61,29.89,10.0,South,11.5,-,N/A,,Clear,190,2014-02-19 10:35:00
4:55 AM,36.5,23.4,59,29.88,10.0,South,11.5,-,N/A,,Clear,190,2014-02-19 10:55:00
5:15 AM,36.9,23.0,57,29.88,10.0,South,15.0,-,N/A,,Clear,190,2014-02-19 11:15:00
5:35 AM,37.4,22.5,55,29.88,10.0,SSW,12.7,-,N/A,,Clear,200,2014-02-19 11:35:00
5:55 AM,37.9,21.9,53,29.87,10.0,South,13.8,-,N/A,,Clear,190,2014-02-19 11:55:00
6:15 AM,37.8,21.6,52,29.87,10.0,South,13.8,-,N/A,,Clear,190,2014-02-19 12:15:00
6:35 AM,37.6,21.0,51,29.86,10.0,South,11.5,-,N/A,,Clear,190,2014-02-19 12:35:00
6:55 AM,37.4,21.0,52,29.84,10.0,South,15.0,-,N/A,,Clear,190,2014-02-19 12:55:00
7:15 AM,37.4,20.8,51,29.85,10.0,SSW,10.4,-,N/A,,Clear,200,2014-02-19 13:15:00
7:35 AM,36.5,21.2,54,29.84,10.0,SSW,10.4,-,N/A,,Scattered Clouds,200,2014-02-19 13:35:00
7:55 AM,35.8,21.4,56,29.84,10.0,South,9.2,-,N/A,,Scattered Clouds,190,2014-02-19 13:55:00
8:15 AM,36.0,21.9,57,29.83,10.0,South,8.1,-,N/A,,Clear,190,2014-02-19 14:15:00
8:35 AM,37.0,21.9,54,29.83,10.0,South,9.2,-,N/A,,Clear,190,2014-02-19 14:35:00
8:55 AM,39.0,21.7,50,29.83,10.0,South,11.5,-,N/A,,Clear,190,2014-02-19 14:55:00
9:15 AM,40.5,21.0,46,29.82,10.0,SSW,12.7,-,N/A,,Clear,200,2014-02-19 15:15:00
9:35 AM,42.6,19.9,40,29.81,10.0,SSW,16.1,19.6,N/A,,Clear,200,2014-02-19 15:35:00
9:55 AM,43.9,18.7,37,29.80,10.0,SSW,19.6,25.3,N/A,,Clear,200,2014-02-19 15:55:00
10:15 AM,45.5,18.3,34,29.79,10.0,SSW,21.9,26.5,N/A,,Clear,200,2014-02-19 16:15:00
10:35 AM,46.4,18.5,33,29.77,10.0,SSW,21.9,28.8,N/A,,Clear,200,2014-02-19 16:35:00
10:55 AM,47.3,18.0,31,29.76,10.0,South,19.6,31.1,N/A,,Clear,190,2014-02-19 16:55:00
11:15 AM,47.8,17.6,30,29.76,10.0,South,21.9,-,N/A,,Scattered Clouds,190,2014-02-19 17:15:00
11:35 AM,49.3,16.7,27,29.74,10.0,SSW,25.3,29.9,N/A,,Clear,200,2014-02-19 17:35:00
11:55 AM,50.2,15.8,26,29.72,10.0,South,26.5,36.8,N/A,,Clear,190,2014-02-19 17:55:00
12:15 PM,52.2,16.3,24,29.71,10.0,SSW,26.5,35.7,N/A,,Clear,200,2014-02-19 18:15:00
12:35 PM,53.6,15.6,22,29.69,10.0,South,31.1,35.7,N/A,,Clear,180,2014-02-19 18:35:00
12:55 PM,54.3,15.3,21,29.67,10.0,South,27.6,34.5,N/A,,Clear,190,2014-02-19 18:55:00
1:15 PM,55.2,15.4,21,29.65,10.0,South,27.6,34.5,N/A,,Clear,180,2014-02-19 19:15:00
1:35 PM,55.9,15.3,20,29.63,10.0,South,28.8,35.7,N/A,,Clear,180,2014-02-19 19:35:00
1:55 PM,56.3,14.7,19,29.61,10.0,South,27.6,35.7,N/A,,Clear,190,2014-02-19 19:55:00
2:15 PM,56.8,14.0,19,29.59,10.0,South,27.6,33.4,N/A,,Clear,180,2014-02-19 20:15:00
2:35 PM,57.2,13.8,18,29.57,10.0,SSW,23.0,35.7,N/A,,Clear,200,2014-02-19 20:35:00
2:55 PM,57.6,13.8,18,29.55,10.0,South,26.5,33.4,N/A,,Clear,180,2014-02-19 20:55:00
3:15 PM,58.1,13.6,17,29.54,10.0,South,27.6,31.1,N/A,,Clear,180,2014-02-19 21:15:00
3:35 PM,58.5,13.5,17,29.54,10.0,South,24.2,-,N/A,,Clear,190,2014-02-19 21:35:00
3:55 PM,59.0,13.6,17,29.53,10.0,South,23.0,28.8,N/A,,Clear,180,2014-02-19 21:55:00
4:15 PM,59.0,13.1,16,29.52,10.0,South,18.4,25.3,N/A,,Clear,190,2014-02-19 22:15:00
4:35 PM,59.0,13.5,17,29.51,10.0,South,20.7,-,N/A,,Clear,180,2014-02-19 22:35:00
4:55 PM,58.5,13.5,17,29.49,10.0,South,19.6,25.3,N/A,,Clear,170,2014-02-19 22:55:00
5:15 PM,57.6,14.0,18,29.49,10.0,South,18.4,-,N/A,,Clear,180,2014-02-19 23:15:00
5:35 PM,56.5,14.9,19,29.48,10.0,South,15.0,20.7,N/A,,Clear,170,2014-02-19 23:35:00
5:55 PM,54.5,16.5,22,29.48,10.0,SSE,11.5,-,N/A,,Clear,160,2014-02-19 23:55:00
6:15 PM,50.4,18.5,28,29.47,10.0,SSE,10.4,-,N/A,,Clear,150,2014-02-20 00:15:00
6:35 PM,46.6,20.1,35,29.47,10.0,SSE,11.5,-,N/A,,Clear,150,2014-02-20 00:35:00
6:55 PM,44.4,20.8,39,29.47,10.0,SE,10.4,-,N/A,,Clear,130,2014-02-20 00:55:00
7:15 PM,42.8,21.0,42,29.46,10.0,SE,11.5,-,N/A,,Clear,140,2014-02-20 01:15:00
7:35 PM,41.9,21.2,44,29.46,10.0,SE,12.7,-,N/A,,Clear,140,2014-02-20 01:35:00
7:55 PM,41.7,21.0,44,29.47,10.0,SE,12.7,-,N/A,,Clear,140,2014-02-20 01:55:00
8:15 PM,42.6,21.0,42,29.45,10.0,SE,12.7,-,N/A,,Clear,140,2014-02-20 02:15:00
8:35 PM,43.3,20.7,40,29.45,10.0,SE,13.8,-,N/A,,Clear,130,2014-02-20 02:35:00
8:55 PM,41.4,21.4,45,29.43,10.0,SE,13.8,-,N/A,,Scattered Clouds,140,2014-02-20 02:55:00
9:15 PM,42.1,21.7,44,29.43,10.0,SE,13.8,-,N/A,,Scattered Clouds,140,2014-02-20 03:15:00
9:35 PM,41.0,23.2,49,29.45,10.0,ESE,11.5,-,N/A,,Mostly Cloudy,120,2014-02-20 03:35:00
9:55 PM,40.1,24.3,53,29.46,10.0,ENE,4.6,-,N/A,,Overcast,70,2014-02-20 03:55:00
10:35 PM,46.8,22.5,38,29.52,10.0,Calm,Calm,-,N/A,,Overcast,0,2014-02-20 04:35:00
10:55 PM,46.2,32.7,59,29.52,10.0,NNW,27.6,35.7,N/A,,Overcast,340,2014-02-20 04:55:00
11:15 PM,43.9,34.5,70,29.53,10.0,North,23.0,32.2,N/A,,Overcast,360,2014-02-20 05:15:00
11:35 PM,42.1,33.8,72,29.54,10.0,North,20.7,32.2,N/A,,Overcast,10,2014-02-20 05:35:00
11:55 PM,38.5,32.2,78,29.54,10.0,North,28.8,36.8,N/A,,Overcast,350,2014-02-20 05:55:00